sensor_id;sensor_type;location;lat;lon;timestamp;temperature;humidity
25438;DHT22;13364;49.084;9.978;2024-03-29T00:01:32;5.80;75.30
25438;DHT22;13364;49.084;9.978;2024-03-29T00:03:58;5.70;75.60
25438;DHT22;13364;49.084;9.978;2024-03-29T00:06:24;5.70;75.80
25438;DHT22;13364;49.084;9.978;2024-03-29T00:08:50;5.70;75.80
25438;DHT22;13364;49.084;9.978;2024-03-29T00:11:16;5.70;75.80
25438;DHT22;13364;49.084;9.978;2024-03-29T00:13:41;5.70;76.10
25438;DHT22;13364;49.084;9.978;2024-03-29T00:16:07;5.70;76.30
25438;DHT22;13364;49.084;9.978;2024-03-29T00:18:33;5.70;76.50
25438;DHT22;13364;49.084;9.978;2024-03-29T00:20:59;5.70;76.50
25438;DHT22;13364;49.084;9.978;2024-03-29T00:23:25;5.70;76.50
25438;DHT22;13364;49.084;9.978;2024-03-29T00:25:51;5.70;76.80
25438;DHT22;13364;49.084;9.978;2024-03-29T00:28:17;5.80;76.80
25438;DHT22;13364;49.084;9.978;2024-03-29T00:30:43;5.80;76.90
25438;DHT22;13364;49.084;9.978;2024-03-29T00:33:09;5.90;77.00
25438;DHT22;13364;49.084;9.978;2024-03-29T00:35:35;5.90;76.90
25438;DHT22;13364;49.084;9.978;2024-03-29T00:38:01;5.90;76.80
25438;DHT22;13364;49.084;9.978;2024-03-29T00:40:27;5.90;76.80
25438;DHT22;13364;49.084;9.978;2024-03-29T00:42:52;5.90;77.00
25438;DHT22;13364;49.084;9.978;2024-03-29T00:45:18;5.90;76.90
25438;DHT22;13364;49.084;9.978;2024-03-29T00:47:45;6.00;77.20
25438;DHT22;13364;49.084;9.978;2024-03-29T00:50:11;6.00;76.90
25438;DHT22;13364;49.084;9.978;2024-03-29T00:52:37;6.10;76.80
25438;DHT22;13364;49.084;9.978;2024-03-29T00:55:03;6.10;76.50
25438;DHT22;13364;49.084;9.978;2024-03-29T00:57:30;6.10;76.40
25438;DHT22;13364;49.084;9.978;2024-03-29T00:59:56;6.10;76.40
25438;DHT22;13364;49.084;9.978;2024-03-29T01:02:23;6.20;76.10
25438;DHT22;13364;49.084;9.978;2024-03-29T01:04:49;6.20;76.00
25438;DHT22;13364;49.084;9.978;2024-03-29T01:07:15;6.20;75.90
25438;DHT22;13364;49.084;9.978;2024-03-29T01:09:43;6.20;76.00
25438;DHT22;13364;49.084;9.978;2024-03-29T01:12:09;6.30;75.60
25438;DHT22;13364;49.084;9.978;2024-03-29T01:14:35;6.30;75.40
25438;DHT22;13364;49.084;9.978;2024-03-29T01:17:02;6.40;75.20
25438;DHT22;13364;49.084;9.978;2024-03-29T01:19:28;6.40;75.00
25438;DHT22;13364;49.084;9.978;2024-03-29T01:21:54;6.50;74.70
25438;DHT22;13364;49.084;9.978;2024-03-29T01:24:20;6.50;74.60
25438;DHT22;13364;49.084;9.978;2024-03-29T01:26:46;6.50;74.20
25438;DHT22;13364;49.084;9.978;2024-03-29T01:29:12;6.60;74.30
25438;DHT22;13364;49.084;9.978;2024-03-29T01:31:38;6.60;74.10
25438;DHT22;13364;49.084;9.978;2024-03-29T01:34:04;6.70;74.10
25438;DHT22;13364;49.084;9.978;2024-03-29T01:36:30;6.70;73.90
25438;DHT22;13364;49.084;9.978;2024-03-29T01:38:55;6.70;73.80
25438;DHT22;13364;49.084;9.978;2024-03-29T01:41:24;6.70;73.80
25438;DHT22;13364;49.084;9.978;2024-03-29T01:43:53;6.70;74.00
25438;DHT22;13364;49.084;9.978;2024-03-29T01:46:23;6.70;73.90
25438;DHT22;13364;49.084;9.978;2024-03-29T01:48:51;6.70;73.70
25438;DHT22;13364;49.084;9.978;2024-03-29T01:51:18;6.80;73.80
25438;DHT22;13364;49.084;9.978;2024-03-29T01:53:47;6.80;73.70
25438;DHT22;13364;49.084;9.978;2024-03-29T01:56:14;6.80;73.60
25438;DHT22;13364;49.084;9.978;2024-03-29T01:58:41;6.80;73.80
25438;DHT22;13364;49.084;9.978;2024-03-29T02:01:08;6.80;73.70
25438;DHT22;13364;49.084;9.978;2024-03-29T02:03:35;6.80;73.80
25438;DHT22;13364;49.084;9.978;2024-03-29T02:06:02;6.90;73.80
25438;DHT22;13364;49.084;9.978;2024-03-29T02:08:28;6.80;73.80
25438;DHT22;13364;49.084;9.978;2024-03-29T02:10:54;6.80;73.90
25438;DHT22;13364;49.084;9.978;2024-03-29T02:13:21;6.90;73.80
25438;DHT22;13364;49.084;9.978;2024-03-29T02:15:47;6.90;73.70
25438;DHT22;13364;49.084;9.978;2024-03-29T02:18:13;6.90;73.70
25438;DHT22;13364;49.084;9.978;2024-03-29T02:20:39;7.00;73.60
25438;DHT22;13364;49.084;9.978;2024-03-29T02:23:14;7.00;73.40
25438;DHT22;13364;49.084;9.978;2024-03-29T02:25:41;6.90;73.20
25438;DHT22;13364;49.084;9.978;2024-03-29T02:28:07;7.00;73.40
25438;DHT22;13364;49.084;9.978;2024-03-29T02:30:33;7.00;73.00
25438;DHT22;13364;49.084;9.978;2024-03-29T02:33:00;7.00;72.70
25438;DHT22;13364;49.084;9.978;2024-03-29T02:35:26;7.00;72.60
25438;DHT22;13364;49.084;9.978;2024-03-29T02:37:52;7.00;71.90
25438;DHT22;13364;49.084;9.978;2024-03-29T02:40:19;7.00;71.90
25438;DHT22;13364;49.084;9.978;2024-03-29T02:42:45;7.00;71.70
25438;DHT22;13364;49.084;9.978;2024-03-29T02:45:11;7.00;71.80
25438;DHT22;13364;49.084;9.978;2024-03-29T02:47:37;7.00;71.70
25438;DHT22;13364;49.084;9.978;2024-03-29T02:50:03;7.10;71.60
25438;DHT22;13364;49.084;9.978;2024-03-29T02:52:29;7.20;71.70
25438;DHT22;13364;49.084;9.978;2024-03-29T02:54:55;7.30;71.80
25438;DHT22;13364;49.084;9.978;2024-03-29T02:57:21;7.40;71.80
25438;DHT22;13364;49.084;9.978;2024-03-29T02:59:47;7.40;72.00
25438;DHT22;13364;49.084;9.978;2024-03-29T03:02:13;7.40;72.00
25438;DHT22;13364;49.084;9.978;2024-03-29T03:04:38;7.40;72.00
25438;DHT22;13364;49.084;9.978;2024-03-29T03:07:04;7.30;72.20
25438;DHT22;13364;49.084;9.978;2024-03-29T03:09:49;7.30;72.40
25438;DHT22;13364;49.084;9.978;2024-03-29T03:12:33;7.20;72.90
25438;DHT22;13364;49.084;9.978;2024-03-29T03:14:59;7.20;72.80
25438;DHT22;13364;49.084;9.978;2024-03-29T03:17:28;7.20;73.00
25438;DHT22;13364;49.084;9.978;2024-03-29T03:19:55;7.20;73.20
25438;DHT22;13364;49.084;9.978;2024-03-29T03:22:21;7.10;73.10
25438;DHT22;13364;49.084;9.978;2024-03-29T03:24:46;7.10;73.30
25438;DHT22;13364;49.084;9.978;2024-03-29T03:27:12;7.10;73.50
25438;DHT22;13364;49.084;9.978;2024-03-29T03:29:39;7.10;73.90
25438;DHT22;13364;49.084;9.978;2024-03-29T03:32:05;7.20;73.80
25438;DHT22;13364;49.084;9.978;2024-03-29T03:34:32;7.30;73.70
25438;DHT22;13364;49.084;9.978;2024-03-29T03:36:58;7.30;73.80
25438;DHT22;13364;49.084;9.978;2024-03-29T03:39:24;7.30;73.50
25438;DHT22;13364;49.084;9.978;2024-03-29T03:41:50;7.30;73.60
25438;DHT22;13364;49.084;9.978;2024-03-29T03:44:16;7.30;73.80
25438;DHT22;13364;49.084;9.978;2024-03-29T03:46:42;7.30;74.20
25438;DHT22;13364;49.084;9.978;2024-03-29T03:49:08;7.40;74.30
25438;DHT22;13364;49.084;9.978;2024-03-29T03:51:34;7.40;74.00
25438;DHT22;13364;49.084;9.978;2024-03-29T03:54:00;7.40;74.10
25438;DHT22;13364;49.084;9.978;2024-03-29T03:56:26;7.40;74.00
25438;DHT22;13364;49.084;9.978;2024-03-29T03:58:52;7.40;74.20
25438;DHT22;13364;49.084;9.978;2024-03-29T04:01:18;7.40;74.00
25438;DHT22;13364;49.084;9.978;2024-03-29T04:03:44;7.40;73.70
25438;DHT22;13364;49.084;9.978;2024-03-29T04:06:09;7.40;73.80
25438;DHT22;13364;49.084;9.978;2024-03-29T04:08:35;7.30;74.10
25438;DHT22;13364;49.084;9.978;2024-03-29T04:11:04;7.30;74.40
25438;DHT22;13364;49.084;9.978;2024-03-29T04:13:30;7.30;74.40
25438;DHT22;13364;49.084;9.978;2024-03-29T04:16:03;7.30;74.10
25438;DHT22;13364;49.084;9.978;2024-03-29T04:18:29;7.40;74.10
25438;DHT22;13364;49.084;9.978;2024-03-29T04:20:57;7.30;73.80
25438;DHT22;13364;49.084;9.978;2024-03-29T04:23:23;7.30;73.70
25438;DHT22;13364;49.084;9.978;2024-03-29T04:25:53;7.30;76.20
25438;DHT22;13364;49.084;9.978;2024-03-29T04:28:19;7.30;77.30
25438;DHT22;13364;49.084;9.978;2024-03-29T04:30:57;7.20;77.50
25438;DHT22;13364;49.084;9.978;2024-03-29T04:33:24;7.10;78.30
25438;DHT22;13364;49.084;9.978;2024-03-29T04:36:10;7.10;75.30
25438;DHT22;13364;49.084;9.978;2024-03-29T04:38:36;7.20;74.50
25438;DHT22;13364;49.084;9.978;2024-03-29T04:41:02;7.30;74.20
25438;DHT22;13364;49.084;9.978;2024-03-29T04:43:29;7.20;73.90
25438;DHT22;13364;49.084;9.978;2024-03-29T04:46:13;7.20;74.20
25438;DHT22;13364;49.084;9.978;2024-03-29T04:48:40;7.30;75.30
25438;DHT22;13364;49.084;9.978;2024-03-29T04:51:08;7.30;76.10
25438;DHT22;13364;49.084;9.978;2024-03-29T04:53:40;7.30;75.60
25438;DHT22;13364;49.084;9.978;2024-03-29T04:56:07;7.40;74.50
25438;DHT22;13364;49.084;9.978;2024-03-29T04:58:33;7.40;72.00
25438;DHT22;13364;49.084;9.978;2024-03-29T05:00:59;7.50;71.60
25438;DHT22;13364;49.084;9.978;2024-03-29T05:03:25;7.60;71.40
25438;DHT22;13364;49.084;9.978;2024-03-29T05:05:51;7.60;71.40
25438;DHT22;13364;49.084;9.978;2024-03-29T05:08:18;7.70;70.80
25438;DHT22;13364;49.084;9.978;2024-03-29T05:10:46;7.70;71.40
25438;DHT22;13364;49.084;9.978;2024-03-29T05:13:12;7.80;71.70
25438;DHT22;13364;49.084;9.978;2024-03-29T05:15:38;7.80;72.20
25438;DHT22;13364;49.084;9.978;2024-03-29T05:18:04;7.90;72.80
25438;DHT22;13364;49.084;9.978;2024-03-29T05:20:30;7.90;73.00
25438;DHT22;13364;49.084;9.978;2024-03-29T05:22:58;7.90;72.00
25438;DHT22;13364;49.084;9.978;2024-03-29T05:25:24;7.90;70.10
25438;DHT22;13364;49.084;9.978;2024-03-29T05:27:50;8.00;69.80
25438;DHT22;13364;49.084;9.978;2024-03-29T05:30:16;7.90;69.40
25438;DHT22;13364;49.084;9.978;2024-03-29T05:32:43;7.90;68.80
25438;DHT22;13364;49.084;9.978;2024-03-29T05:35:10;7.90;68.70
25438;DHT22;13364;49.084;9.978;2024-03-29T05:37:36;7.90;69.60
25438;DHT22;13364;49.084;9.978;2024-03-29T05:40:03;7.90;70.00
25438;DHT22;13364;49.084;9.978;2024-03-29T05:42:32;8.00;69.50
25438;DHT22;13364;49.084;9.978;2024-03-29T05:44:59;8.00;69.80
25438;DHT22;13364;49.084;9.978;2024-03-29T05:47:25;8.00;70.00
25438;DHT22;13364;49.084;9.978;2024-03-29T05:49:51;8.00;70.60
25438;DHT22;13364;49.084;9.978;2024-03-29T05:52:17;8.10;71.00
25438;DHT22;13364;49.084;9.978;2024-03-29T05:54:44;8.10;71.80
25438;DHT22;13364;49.084;9.978;2024-03-29T05:57:10;8.10;71.60
25438;DHT22;13364;49.084;9.978;2024-03-29T05:59:36;8.20;71.50
25438;DHT22;13364;49.084;9.978;2024-03-29T06:02:04;8.30;71.60
25438;DHT22;13364;49.084;9.978;2024-03-29T06:04:30;8.30;71.70
25438;DHT22;13364;49.084;9.978;2024-03-29T06:07:02;8.40;71.40
25438;DHT22;13364;49.084;9.978;2024-03-29T06:09:28;8.40;71.10
25438;DHT22;13364;49.084;9.978;2024-03-29T06:11:55;8.40;70.80
25438;DHT22;13364;49.084;9.978;2024-03-29T06:14:25;8.40;70.80
25438;DHT22;13364;49.084;9.978;2024-03-29T06:17:09;8.40;71.00
25438;DHT22;13364;49.084;9.978;2024-03-29T06:22:17;8.40;69.70
25438;DHT22;13364;49.084;9.978;2024-03-29T06:24:44;8.30;70.30
25438;DHT22;13364;49.084;9.978;2024-03-29T06:27:10;8.40;70.60
25438;DHT22;13364;49.084;9.978;2024-03-29T06:29:36;8.40;70.90
25438;DHT22;13364;49.084;9.978;2024-03-29T06:32:02;8.40;71.00
25438;DHT22;13364;49.084;9.978;2024-03-29T06:34:31;8.40;71.10
25438;DHT22;13364;49.084;9.978;2024-03-29T06:36:57;8.40;71.00
25438;DHT22;13364;49.084;9.978;2024-03-29T06:39:23;8.40;71.50
25438;DHT22;13364;49.084;9.978;2024-03-29T06:41:50;8.50;70.90
25438;DHT22;13364;49.084;9.978;2024-03-29T06:44:16;8.50;71.00
25438;DHT22;13364;49.084;9.978;2024-03-29T06:46:42;8.50;71.20
25438;DHT22;13364;49.084;9.978;2024-03-29T06:49:08;8.40;71.30
25438;DHT22;13364;49.084;9.978;2024-03-29T06:51:34;8.40;71.40
25438;DHT22;13364;49.084;9.978;2024-03-29T06:53:59;8.40;71.70
25438;DHT22;13364;49.084;9.978;2024-03-29T06:56:25;8.40;72.00
25438;DHT22;13364;49.084;9.978;2024-03-29T06:58:51;8.40;72.20
25438;DHT22;13364;49.084;9.978;2024-03-29T07:01:17;8.30;72.30
25438;DHT22;13364;49.084;9.978;2024-03-29T07:03:43;8.40;72.50
25438;DHT22;13364;49.084;9.978;2024-03-29T07:06:09;8.40;72.70
25438;DHT22;13364;49.084;9.978;2024-03-29T07:08:35;8.40;72.70
25438;DHT22;13364;49.084;9.978;2024-03-29T07:11:01;8.40;72.70
25438;DHT22;13364;49.084;9.978;2024-03-29T07:13:29;8.40;73.00
25438;DHT22;13364;49.084;9.978;2024-03-29T07:16:04;8.40;73.20
25438;DHT22;13364;49.084;9.978;2024-03-29T07:18:30;8.50;73.50
25438;DHT22;13364;49.084;9.978;2024-03-29T07:20:56;8.40;72.90
25438;DHT22;13364;49.084;9.978;2024-03-29T07:23:22;8.50;72.80
25438;DHT22;13364;49.084;9.978;2024-03-29T07:25:59;8.40;73.30
25438;DHT22;13364;49.084;9.978;2024-03-29T07:28:25;8.40;73.60
25438;DHT22;13364;49.084;9.978;2024-03-29T07:30:51;8.40;73.60
25438;DHT22;13364;49.084;9.978;2024-03-29T07:33:19;8.50;73.30
25438;DHT22;13364;49.084;9.978;2024-03-29T07:35:49;8.40;73.00
25438;DHT22;13364;49.084;9.978;2024-03-29T07:38:15;8.40;73.40
25438;DHT22;13364;49.084;9.978;2024-03-29T07:40:43;8.50;73.60
25438;DHT22;13364;49.084;9.978;2024-03-29T07:43:09;8.50;73.80
25438;DHT22;13364;49.084;9.978;2024-03-29T07:45:35;8.60;74.00
25438;DHT22;13364;49.084;9.978;2024-03-29T07:48:01;8.70;73.70
25438;DHT22;13364;49.084;9.978;2024-03-29T07:50:27;8.70;73.60
25438;DHT22;13364;49.084;9.978;2024-03-29T07:52:53;8.80;73.70
25438;DHT22;13364;49.084;9.978;2024-03-29T07:55:19;8.80;73.70
25438;DHT22;13364;49.084;9.978;2024-03-29T07:57:45;8.80;73.50
25438;DHT22;13364;49.084;9.978;2024-03-29T08:00:12;8.90;73.30
25438;DHT22;13364;49.084;9.978;2024-03-29T08:02:38;8.90;73.30
25438;DHT22;13364;49.084;9.978;2024-03-29T08:05:06;8.90;73.10
25438;DHT22;13364;49.084;9.978;2024-03-29T08:07:32;8.80;73.60
25438;DHT22;13364;49.084;9.978;2024-03-29T08:09:58;8.80;74.00
25438;DHT22;13364;49.084;9.978;2024-03-29T08:12:24;8.80;74.90
25438;DHT22;13364;49.084;9.978;2024-03-29T08:14:50;8.70;75.10
25438;DHT22;13364;49.084;9.978;2024-03-29T08:17:16;8.70;75.90
25438;DHT22;13364;49.084;9.978;2024-03-29T08:19:42;8.60;76.80
25438;DHT22;13364;49.084;9.978;2024-03-29T08:22:08;8.50;79.00
25438;DHT22;13364;49.084;9.978;2024-03-29T08:24:38;8.40;79.70
25438;DHT22;13364;49.084;9.978;2024-03-29T08:27:05;8.30;80.50
25438;DHT22;13364;49.084;9.978;2024-03-29T08:29:31;8.30;81.70
25438;DHT22;13364;49.084;9.978;2024-03-29T08:31:56;8.30;82.60
25438;DHT22;13364;49.084;9.978;2024-03-29T08:34:22;8.30;82.70
25438;DHT22;13364;49.084;9.978;2024-03-29T08:36:48;8.20;83.40
25438;DHT22;13364;49.084;9.978;2024-03-29T08:39:14;8.20;84.00
25438;DHT22;13364;49.084;9.978;2024-03-29T08:41:42;8.10;84.40
25438;DHT22;13364;49.084;9.978;2024-03-29T08:44:11;8.00;85.10
25438;DHT22;13364;49.084;9.978;2024-03-29T08:46:37;7.90;86.10
25438;DHT22;13364;49.084;9.978;2024-03-29T08:49:03;7.90;86.70
25438;DHT22;13364;49.084;9.978;2024-03-29T08:51:28;7.80;87.70
25438;DHT22;13364;49.084;9.978;2024-03-29T08:53:55;7.70;88.40
25438;DHT22;13364;49.084;9.978;2024-03-29T08:56:23;7.70;89.30
25438;DHT22;13364;49.084;9.978;2024-03-29T08:58:49;7.60;90.10
25438;DHT22;13364;49.084;9.978;2024-03-29T09:01:15;7.60;90.80
25438;DHT22;13364;49.084;9.978;2024-03-29T09:03:41;7.60;91.50
25438;DHT22;13364;49.084;9.978;2024-03-29T09:06:07;7.60;91.70
25438;DHT22;13364;49.084;9.978;2024-03-29T09:08:33;7.60;92.40
25438;DHT22;13364;49.084;9.978;2024-03-29T09:10:59;7.70;92.90
25438;DHT22;13364;49.084;9.978;2024-03-29T09:13:26;7.70;93.10
25438;DHT22;13364;49.084;9.978;2024-03-29T09:15:52;7.70;93.40
25438;DHT22;13364;49.084;9.978;2024-03-29T09:18:18;7.70;94.00
25438;DHT22;13364;49.084;9.978;2024-03-29T09:20:59;7.80;94.40
25438;DHT22;13364;49.084;9.978;2024-03-29T09:23:26;7.90;94.30
25438;DHT22;13364;49.084;9.978;2024-03-29T09:25:54;8.00;94.60
25438;DHT22;13364;49.084;9.978;2024-03-29T09:28:20;8.10;95.10
25438;DHT22;13364;49.084;9.978;2024-03-29T09:30:47;8.20;95.80
25438;DHT22;13364;49.084;9.978;2024-03-29T09:33:13;8.20;96.70
25438;DHT22;13364;49.084;9.978;2024-03-29T09:35:39;8.30;97.90
25438;DHT22;13364;49.084;9.978;2024-03-29T09:38:05;8.30;97.80
25438;DHT22;13364;49.084;9.978;2024-03-29T09:40:32;8.40;97.80
25438;DHT22;13364;49.084;9.978;2024-03-29T09:43:00;8.60;98.20
25438;DHT22;13364;49.084;9.978;2024-03-29T09:45:33;8.70;98.40
25438;DHT22;13364;49.084;9.978;2024-03-29T09:48:02;8.80;98.40
25438;DHT22;13364;49.084;9.978;2024-03-29T09:50:32;8.90;98.10
25438;DHT22;13364;49.084;9.978;2024-03-29T09:52:59;9.00;97.70
25438;DHT22;13364;49.084;9.978;2024-03-29T09:55:25;9.10;97.20
25438;DHT22;13364;49.084;9.978;2024-03-29T09:57:52;9.20;96.80
25438;DHT22;13364;49.084;9.978;2024-03-29T10:00:18;9.30;96.40
25438;DHT22;13364;49.084;9.978;2024-03-29T10:02:44;9.40;96.00
25438;DHT22;13364;49.084;9.978;2024-03-29T10:05:11;9.50;95.60
25438;DHT22;13364;49.084;9.978;2024-03-29T10:07:38;9.60;95.30
25438;DHT22;13364;49.084;9.978;2024-03-29T10:10:05;9.60;94.80
25438;DHT22;13364;49.084;9.978;2024-03-29T10:12:31;9.70;94.30
25438;DHT22;13364;49.084;9.978;2024-03-29T10:14:57;9.80;94.10
25438;DHT22;13364;49.084;9.978;2024-03-29T10:17:31;9.80;94.00
25438;DHT22;13364;49.084;9.978;2024-03-29T10:20:01;9.80;94.10
25438;DHT22;13364;49.084;9.978;2024-03-29T10:22:30;9.80;93.50
25438;DHT22;13364;49.084;9.978;2024-03-29T10:24:58;9.80;93.40
25438;DHT22;13364;49.084;9.978;2024-03-29T10:27:27;9.80;93.40
25438;DHT22;13364;49.084;9.978;2024-03-29T10:29:53;9.80;93.70
25438;DHT22;13364;49.084;9.978;2024-03-29T10:32:20;9.90;93.80
25438;DHT22;13364;49.084;9.978;2024-03-29T10:34:48;9.90;93.70
25438;DHT22;13364;49.084;9.978;2024-03-29T10:37:14;9.90;93.80
25438;DHT22;13364;49.084;9.978;2024-03-29T10:39:42;9.80;93.50
25438;DHT22;13364;49.084;9.978;2024-03-29T10:42:09;9.80;93.60
25438;DHT22;13364;49.084;9.978;2024-03-29T10:44:39;9.90;93.20
25438;DHT22;13364;49.084;9.978;2024-03-29T10:47:06;9.90;92.90
25438;DHT22;13364;49.084;9.978;2024-03-29T10:49:33;9.90;92.90
25438;DHT22;13364;49.084;9.978;2024-03-29T10:52:00;9.90;92.80
25438;DHT22;13364;49.084;9.978;2024-03-29T10:54:28;9.80;92.90
25438;DHT22;13364;49.084;9.978;2024-03-29T10:56:59;9.80;93.30
25438;DHT22;13364;49.084;9.978;2024-03-29T10:59:41;9.90;93.40
25438;DHT22;13364;49.084;9.978;2024-03-29T11:02:38;9.90;93.20
25438;DHT22;13364;49.084;9.978;2024-03-29T11:05:09;10.00;94.00
25438;DHT22;13364;49.084;9.978;2024-03-29T11:07:40;10.10;94.10
25438;DHT22;13364;49.084;9.978;2024-03-29T11:10:15;10.10;94.30
25438;DHT22;13364;49.084;9.978;2024-03-29T11:13:19;10.20;94.10
25438;DHT22;13364;49.084;9.978;2024-03-29T11:15:49;10.30;93.80
25438;DHT22;13364;49.084;9.978;2024-03-29T11:18:17;10.40;93.60
25438;DHT22;13364;49.084;9.978;2024-03-29T11:20:48;10.40;93.50
25438;DHT22;13364;49.084;9.978;2024-03-29T11:23:21;10.50;93.40
25438;DHT22;13364;49.084;9.978;2024-03-29T11:25:52;10.50;93.40
25438;DHT22;13364;49.084;9.978;2024-03-29T11:28:29;10.60;93.40
25438;DHT22;13364;49.084;9.978;2024-03-29T11:31:01;10.60;93.50
25438;DHT22;13364;49.084;9.978;2024-03-29T11:33:32;10.60;93.60
25438;DHT22;13364;49.084;9.978;2024-03-29T11:36:00;10.70;93.20
25438;DHT22;13364;49.084;9.978;2024-03-29T11:38:35;10.70;93.50
25438;DHT22;13364;49.084;9.978;2024-03-29T11:41:12;10.70;93.70
25438;DHT22;13364;49.084;9.978;2024-03-29T11:43:38;10.80;93.70
25438;DHT22;13364;49.084;9.978;2024-03-29T11:46:10;10.90;93.80
25438;DHT22;13364;49.084;9.978;2024-03-29T11:48:37;11.00;93.90
25438;DHT22;13364;49.084;9.978;2024-03-29T11:51:06;11.10;94.30
25438;DHT22;13364;49.084;9.978;2024-03-29T11:53:32;11.20;94.40
25438;DHT22;13364;49.084;9.978;2024-03-29T11:55:59;11.30;94.30
25438;DHT22;13364;49.084;9.978;2024-03-29T11:58:29;11.40;93.90
25438;DHT22;13364;49.084;9.978;2024-03-29T12:00:56;11.50;92.50
25438;DHT22;13364;49.084;9.978;2024-03-29T12:03:24;11.50;91.90
25438;DHT22;13364;49.084;9.978;2024-03-29T12:05:51;11.60;91.00
25438;DHT22;13364;49.084;9.978;2024-03-29T12:08:20;11.60;90.70
25438;DHT22;13364;49.084;9.978;2024-03-29T12:10:47;11.70;89.80
25438;DHT22;13364;49.084;9.978;2024-03-29T12:13:16;11.70;89.30
25438;DHT22;13364;49.084;9.978;2024-03-29T12:15:42;11.70;88.10
25438;DHT22;13364;49.084;9.978;2024-03-29T12:18:08;11.70;87.80
25438;DHT22;13364;49.084;9.978;2024-03-29T12:20:35;11.70;88.60
25438;DHT22;13364;49.084;9.978;2024-03-29T12:23:04;11.70;88.20
25438;DHT22;13364;49.084;9.978;2024-03-29T12:25:31;11.70;88.50
25438;DHT22;13364;49.084;9.978;2024-03-29T12:27:58;11.70;88.00
25438;DHT22;13364;49.084;9.978;2024-03-29T12:30:25;11.70;88.50
25438;DHT22;13364;49.084;9.978;2024-03-29T12:33:08;11.80;88.50
25438;DHT22;13364;49.084;9.978;2024-03-29T12:35:37;11.80;88.30
25438;DHT22;13364;49.084;9.978;2024-03-29T12:38:04;11.90;87.80
25438;DHT22;13364;49.084;9.978;2024-03-29T12:40:32;11.90;87.00
25438;DHT22;13364;49.084;9.978;2024-03-29T12:43:05;12.00;86.90
25438;DHT22;13364;49.084;9.978;2024-03-29T12:45:31;12.00;86.80
25438;DHT22;13364;49.084;9.978;2024-03-29T12:47:57;12.10;86.90
25438;DHT22;13364;49.084;9.978;2024-03-29T12:50:27;12.20;86.60
25438;DHT22;13364;49.084;9.978;2024-03-29T12:52:54;12.30;86.50
25438;DHT22;13364;49.084;9.978;2024-03-29T12:55:21;12.40;86.00
25438;DHT22;13364;49.084;9.978;2024-03-29T12:57:47;12.40;85.50
25438;DHT22;13364;49.084;9.978;2024-03-29T13:00:13;12.50;85.40
25438;DHT22;13364;49.084;9.978;2024-03-29T13:02:39;12.60;85.80
25438;DHT22;13364;49.084;9.978;2024-03-29T13:05:05;12.70;85.50
25438;DHT22;13364;49.084;9.978;2024-03-29T13:07:32;12.80;85.40
25438;DHT22;13364;49.084;9.978;2024-03-29T13:09:59;13.00;84.40
25438;DHT22;13364;49.084;9.978;2024-03-29T13:12:29;13.10;84.40
25438;DHT22;13364;49.084;9.978;2024-03-29T13:15:02;13.20;84.00
25438;DHT22;13364;49.084;9.978;2024-03-29T13:17:32;13.40;84.40
25438;DHT22;13364;49.084;9.978;2024-03-29T13:19:58;13.50;84.10
25438;DHT22;13364;49.084;9.978;2024-03-29T13:22:23;13.60;83.70
25438;DHT22;13364;49.084;9.978;2024-03-29T13:24:49;13.70;82.60
25438;DHT22;13364;49.084;9.978;2024-03-29T13:27:15;13.70;82.80
25438;DHT22;13364;49.084;9.978;2024-03-29T13:29:42;13.70;82.20
25438;DHT22;13364;49.084;9.978;2024-03-29T13:32:08;13.60;81.90
25438;DHT22;13364;49.084;9.978;2024-03-29T13:34:34;13.50;82.00
25438;DHT22;13364;49.084;9.978;2024-03-29T13:37:00;13.30;83.00
25438;DHT22;13364;49.084;9.978;2024-03-29T13:39:26;13.10;83.70
25438;DHT22;13364;49.084;9.978;2024-03-29T13:41:52;13.10;85.50
25438;DHT22;13364;49.084;9.978;2024-03-29T13:44:18;13.10;83.50
25438;DHT22;13364;49.084;9.978;2024-03-29T13:46:45;12.90;83.20
25438;DHT22;13364;49.084;9.978;2024-03-29T13:49:11;12.70;84.60
25438;DHT22;13364;49.084;9.978;2024-03-29T13:51:38;12.60;85.50
25438;DHT22;13364;49.084;9.978;2024-03-29T13:54:04;12.50;86.70
25438;DHT22;13364;49.084;9.978;2024-03-29T13:56:30;12.40;87.80
25438;DHT22;13364;49.084;9.978;2024-03-29T13:58:56;12.40;88.90
25438;DHT22;13364;49.084;9.978;2024-03-29T14:01:22;12.50;89.60
25438;DHT22;13364;49.084;9.978;2024-03-29T14:03:48;12.70;89.40
25438;DHT22;13364;49.084;9.978;2024-03-29T14:06:14;12.90;88.50
25438;DHT22;13364;49.084;9.978;2024-03-29T14:08:40;13.20;86.20
25438;DHT22;13364;49.084;9.978;2024-03-29T14:11:07;13.40;84.10
25438;DHT22;13364;49.084;9.978;2024-03-29T14:13:33;13.60;83.40
25438;DHT22;13364;49.084;9.978;2024-03-29T14:15:59;13.90;83.30
25438;DHT22;13364;49.084;9.978;2024-03-29T14:18:26;14.20;81.20
25438;DHT22;13364;49.084;9.978;2024-03-29T14:20:52;14.50;80.90
25438;DHT22;13364;49.084;9.978;2024-03-29T14:23:18;14.70;79.80
25438;DHT22;13364;49.084;9.978;2024-03-29T14:25:48;14.90;78.30
25438;DHT22;13364;49.084;9.978;2024-03-29T14:28:14;14.90;78.30
25438;DHT22;13364;49.084;9.978;2024-03-29T14:30:40;15.00;77.40
25438;DHT22;13364;49.084;9.978;2024-03-29T14:33:06;15.00;77.20
25438;DHT22;13364;49.084;9.978;2024-03-29T14:35:36;14.90;77.00
25438;DHT22;13364;49.084;9.978;2024-03-29T14:38:02;14.90;75.60
25438;DHT22;13364;49.084;9.978;2024-03-29T14:40:28;14.90;74.50
25438;DHT22;13364;49.084;9.978;2024-03-29T14:42:54;14.70;75.70
25438;DHT22;13364;49.084;9.978;2024-03-29T14:45:21;14.70;77.20
25438;DHT22;13364;49.084;9.978;2024-03-29T14:47:47;14.70;77.40
25438;DHT22;13364;49.084;9.978;2024-03-29T14:50:13;14.80;76.10
25438;DHT22;13364;49.084;9.978;2024-03-29T14:52:41;14.80;76.40
25438;DHT22;13364;49.084;9.978;2024-03-29T14:55:06;15.00;76.90
25438;DHT22;13364;49.084;9.978;2024-03-29T14:57:32;15.30;75.60
25438;DHT22;13364;49.084;9.978;2024-03-29T14:59:58;15.40;74.00
25438;DHT22;13364;49.084;9.978;2024-03-29T15:02:24;15.40;75.10
25438;DHT22;13364;49.084;9.978;2024-03-29T15:04:50;15.40;75.10
25438;DHT22;13364;49.084;9.978;2024-03-29T15:07:16;15.50;74.70
25438;DHT22;13364;49.084;9.978;2024-03-29T15:09:42;15.60;74.10
25438;DHT22;13364;49.084;9.978;2024-03-29T15:12:08;15.70;73.60
25438;DHT22;13364;49.084;9.978;2024-03-29T15:14:36;15.70;73.50
25438;DHT22;13364;49.084;9.978;2024-03-29T15:17:03;15.80;72.70
25438;DHT22;13364;49.084;9.978;2024-03-29T15:19:30;15.80;73.10
25438;DHT22;13364;49.084;9.978;2024-03-29T15:21:56;15.80;73.00
25438;DHT22;13364;49.084;9.978;2024-03-29T15:24:22;15.70;72.80
25438;DHT22;13364;49.084;9.978;2024-03-29T15:26:48;15.80;73.20
25438;DHT22;13364;49.084;9.978;2024-03-29T15:29:15;15.90;72.80
25438;DHT22;13364;49.084;9.978;2024-03-29T15:31:43;16.00;73.10
25438;DHT22;13364;49.084;9.978;2024-03-29T15:34:10;16.20;72.80
25438;DHT22;13364;49.084;9.978;2024-03-29T15:36:37;16.30;71.10
25438;DHT22;13364;49.084;9.978;2024-03-29T15:39:04;16.40;70.70
25438;DHT22;13364;49.084;9.978;2024-03-29T15:41:37;16.40;69.90
25438;DHT22;13364;49.084;9.978;2024-03-29T15:44:05;16.40;70.10
25438;DHT22;13364;49.084;9.978;2024-03-29T15:46:33;16.30;69.10